1881 Hurricane NOT_NAMED (1881256N32318)


IBTrACS version v04r00. Visit IBTrACS website for data access.
Please direct all questions to the IBTrACS Q and A forum

Storm track - Intensity - Wind Radii - Intensity Data - Source Data - All data

Summary Information

Storm ID 1881256N32318
Start Sep 13 00Z
Max Intensity 65 kt (Sep 17 12Z)
End Sep 18 15Z
ATCF IDs
Track status Best track data.
Spur track This storm is a spur track associated with the main storm: 1881261N35292

Storm track plot

Map of storm track

Intensity plots

Map of storm track

Radial wind information

No radial wind information for this storm


Position and Intensity Table

BASIN ISO_TIME_________ NATURE LAT LON MLC WIND
degrees north degrees east kts
NA 1881-09-13 00:00:00 TS 32.00 -42.50 30
NA 03:00:00 TS 32.00 -43.09 30
NA 06:00:00 TS 32.00 -43.70 30
NA 09:00:00 TS 32.00 -44.35 30
NA 12:00:00 TS 32.00 -45.00 30
NA 15:00:00 TS 32.00 -45.61 30
NA 18:00:00 TS 32.00 -46.20 30
NA 21:00:00 TS 32.00 -46.79 32
NA 1881-09-14 00:00:00 TS 32.00 -47.30 35
NA 03:00:00 TS 32.00 -47.64 35
NA 06:00:00 TS 32.00 -47.90 35
NA 09:00:00 TS 31.96 -48.18 35
NA 12:00:00 TS 32.00 -48.50 35
NA 15:00:00 TS 32.21 -48.93 35
NA 18:00:00 TS 32.50 -49.40 35
NA 21:00:00 TS 32.75 -49.85 37
NA 1881-09-15 00:00:00 TS 33.00 -50.30 40
NA 03:00:00 TS 33.25 -50.75 40
NA 06:00:00 TS 33.50 -51.20 40
NA 09:00:00 TS 33.77 -51.64 40
NA 12:00:00 TS 34.00 -52.10 40
NA 15:00:00 TS 34.12 -52.58 45
NA 18:00:00 TS 34.20 -53.10 50
NA 21:00:00 TS 34.30 -53.69 50
NA 1881-09-16 00:00:00 TS 34.40 -54.30 50
NA 03:00:00 TS 34.50 -54.86 50
NA 06:00:00 TS 34.60 -55.40 50
NA 09:00:00 TS 34.68 -55.96 55
NA 12:00:00 TS 34.80 -56.50 60
NA 15:00:00 TS 34.99 -57.01 60
NA 18:00:00 TS 35.20 -57.50 60
NA 21:00:00 TS 35.35 -58.00 60
NA 1881-09-17 00:00:00 TS 35.50 -58.50 60
NA 03:00:00 TS 35.69 -59.00 60
NA 06:00:00 TS 35.90 -59.50 60
NA 09:00:00 TS 36.09 -60.02 62
NA 12:00:00 TS 36.30 -60.50 65
NA 15:00:00 TS 36.59 -60.88 65
NA 18:00:00 TS 36.90 -61.20 65
NA 21:00:00 TS 37.15 -61.51 65
NA 1881-09-18 00:00:00 TS 37.40 -61.80 65
NA 03:00:00 TS 37.70 -62.10 65
NA 06:00:00 TS 38.00 -62.40 65
NA 09:00:00 TS 38.29 -62.65 65
NA 12:00:00 TS 38.50 -63.00 65
NA 15:00:00 TS 38.54 -63.61

Source Information

Agency Information
USA
TOKYO
CMA
HKO
NEWDELHI
REUNION
BOM
NADI
WELLINGTON
DS824
TD9636
TD9635
NEUMANN
MLC

All available IBTrACS Data

SEASON BASIN SUBBASIN ISO_TIME_________ NATURE LAT LON DIST2LAND LANDFALL IFLAG USA SSHS MLC LAT MLC LON MLC CLASS MLC WIND STORM SPEED STORM DIR
Year degrees north degrees east km km 1 degrees north degrees east kts kts degrees
1881 NA NA 1881-09-13 00:00:00 TS 32.00 -42.50 1862 1838 _____________O -1 32.00 -42.50 TD 30 10 270
1881 NA NA 03:00:00 TS 32.00 -43.09 1838 1814 _____________P -1 32.00 -43.09 TD 30 10 270
1881 NA NA 06:00:00 TS 32.00 -43.70 1814 1792 _____________O -1 32.00 -43.70 TD 30 11 270
1881 NA NA 09:00:00 TS 32.00 -44.35 1792 1768 _____________P -1 32.00 -44.35 TD 30 11 270
1881 NA NA 12:00:00 TS 32.00 -45.00 1768 1749 _____________O -1 32.00 -45.00 TD 30 11 270
1881 NA NA 15:00:00 TS 32.00 -45.61 1749 1730 _____________P -1 32.00 -45.61 TD 30 10 270
1881 NA NA 18:00:00 TS 32.00 -46.20 1730 1713 _____________O -1 32.00 -46.20 TD 30 10 270
1881 NA NA 21:00:00 TS 32.00 -46.79 1713 1700 _____________P -1 32.00 -46.79 TD 32 9 270
1881 NA NA 1881-09-14 00:00:00 TS 32.00 -47.30 1700 1693 _____________O -1 32.00 -47.30 TS 35 7 270
1881 NA NA 03:00:00 TS 32.00 -47.64 1693 1686 _____________P -1 32.00 -47.64 TS 35 5 270
1881 NA NA 06:00:00 TS 32.00 -47.90 1686 1679 _____________O -1 32.00 -47.90 TS 35 5 265
1881 NA NA 09:00:00 TS 31.96 -48.18 1679 1673 _____________P -1 31.96 -48.18 TS 35 5 270
1881 NA NA 12:00:00 TS 32.00 -48.50 1673 1643 _____________O -1 32.00 -48.50 TS 35 7 291
1881 NA NA 15:00:00 TS 32.21 -48.93 1643 1602 _____________P -1 32.21 -48.93 TS 35 9 303
1881 NA NA 18:00:00 TS 32.50 -49.40 1602 1573 _____________O -1 32.50 -49.40 TS 35 9 305
1881 NA NA 21:00:00 TS 32.75 -49.85 1572 1533 _____________P -1 32.75 -49.85 TS 37 9 303
1881 NA NA 1881-09-15 00:00:00 TS 33.00 -50.30 1533 1506 _____________O -1 33.00 -50.30 TS 40 9 304
1881 NA NA 03:00:00 TS 33.25 -50.75 1505 1467 _____________P -1 33.25 -50.75 TS 40 9 304
1881 NA NA 06:00:00 TS 33.50 -51.20 1467 1430 _____________O -1 33.50 -51.20 TS 40 9 305
1881 NA NA 09:00:00 TS 33.77 -51.64 1430 1405 _____________P -1 33.77 -51.64 TS 40 9 304
1881 NA NA 12:00:00 TS 34.00 -52.10 1405 1391 _____________O -1 34.00 -52.10 TS 40 9 294
1881 NA NA 15:00:00 TS 34.12 -52.58 1391 1379 _____________P -1 34.12 -52.58 TS 45 9 284
1881 NA NA 18:00:00 TS 34.20 -53.10 1379 1365 _____________O -1 34.20 -53.10 TS 50 9 281
1881 NA NA 21:00:00 TS 34.30 -53.69 1365 1333 _____________P -1 34.30 -53.69 TS 50 10 281
1881 NA NA 1881-09-16 00:00:00 TS 34.40 -54.30 1333 1304 _____________O -1 34.40 -54.30 TS 50 10 282
1881 NA NA 03:00:00 TS 34.50 -54.86 1301 1274 _____________P -1 34.50 -54.86 TS 50 9 282
1881 NA NA 06:00:00 TS 34.60 -55.40 1274 1248 _____________O -1 34.60 -55.40 TS 50 9 282
1881 NA NA 09:00:00 TS 34.68 -55.96 1245 1221 _____________P -1 34.68 -55.96 TS 55 9 282
1881 NA NA 12:00:00 TS 34.80 -56.50 1221 1183 _____________O -1 34.80 -56.50 TS 60 9 290
1881 NA NA 15:00:00 TS 34.99 -57.01 1183 1139 _____________P -1 34.99 -57.01 TS 60 9 296
1881 NA NA 18:00:00 TS 35.20 -57.50 1139 1105 _____________O -1 35.20 -57.50 TS 60 9 294
1881 NA NA 21:00:00 TS 35.35 -58.00 1105 1062 _____________P -1 35.35 -58.00 TS 60 9 290
1881 NA NA 1881-09-17 00:00:00 TS 35.50 -58.50 1062 1020 _____________O -1 35.50 -58.50 TS 60 9 293
1881 NA NA 03:00:00 TS 35.69 -59.00 1020 979 _____________P -1 35.69 -59.00 TS 60 9 296
1881 NA NA 06:00:00 TS 35.90 -59.50 979 938 _____________O -1 35.90 -59.50 TS 60 9 295
1881 NA NA 09:00:00 TS 36.09 -60.02 938 898 _____________P -1 36.09 -60.02 TS 62 9 296
1881 NA NA 12:00:00 TS 36.30 -60.50 898 853 _____________O -1 36.30 -60.50 HU 65 9 306
1881 NA NA 15:00:00 TS 36.59 -60.88 853 812 _____________P -1 36.59 -60.88 HU 65 8 317
1881 NA NA 18:00:00 TS 36.90 -61.20 812 781 _____________O -1 36.90 -61.20 HU 65 8 318
1881 NA NA 21:00:00 TS 37.15 -61.51 781 740 _____________P -1 37.15 -61.51 HU 65 7 316
1881 NA NA 1881-09-18 00:00:00 TS 37.40 -61.80 740 699 _____________O -1 37.40 -61.80 HU 65 7 320
1881 NA NA 03:00:00 TS 37.70 -62.10 699 658 _____________P -1 37.70 -62.10 HU 65 8 322
1881 NA NA 06:00:00 TS 38.00 -62.40 658 621 _____________O -1 38.00 -62.40 HU 65 7 324
1881 NA NA 09:00:00 TS 38.29 -62.65 621 588 _____________P -1 38.26 -62.70 HU 65 7 317
1881 NA NA 12:00:00 TS 38.50 -63.00 588 574 _____________O -1 38.50 -63.00 HU 65 8 288
1881 NA NA 15:00:00 TS 38.54 -63.61 574 ______________ -1 HU 9 275